Time;durP1;ratioP1;P1;durP2;ratioP2;P2;SDS_P1;SDS_P2;PMS_P1;PMS_P2;Temp;Humidity;BMP_temperature;BMP_pressure;BME280_temperature;BME280_humidity;BME280_pressure;Samples;Min_cycle;Max_cycle;Signal;HPM_P1;HPM_P2
2023/09/18 00:01:41;;;;;;;21.50;10.05;;;;;;;;;;5074211;28;20238;-66
2023/09/18 00:04:06;;;;;;;18.63;9.68;;;;;;;;;;5090892;28;20115;-65
2023/09/18 00:06:33;;;;;;;14.20;9.27;;;;;;;;;;5091831;28;20234;-65
2023/09/18 00:08:59;;;;;;;23.83;11.13;;;;;;;;;;5093109;28;20051;-66
2023/09/18 00:11:25;;;;;;;22.48;10.77;;;;;;;;;;5093596;28;20039;-66
2023/09/18 00:13:51;;;;;;;13.80;9.07;;;;;;;;;;5092377;28;20143;-65
2023/09/18 00:16:18;;;;;;;19.45;10.27;;;;;;;;;;5076735;28;20064;-66
2023/09/18 00:18:44;;;;;;;13.55;8.82;;;;;;;;;;5095257;28;20059;-65
2023/09/18 00:21:10;;;;;;;15.50;9.73;;;;;;;;;;5111251;28;20127;-66
2023/09/18 00:23:37;;;;;;;15.02;9.20;;;;;;;;;;5095147;28;20466;-65
2023/09/18 00:26:03;;;;;;;18.90;9.73;;;;;;;;;;5094764;28;20040;-65
2023/09/18 00:28:29;;;;;;;15.18;8.65;;;;;;;;;;5095761;28;20382;-66
2023/09/18 00:30:54;;;;;;;14.23;9.27;;;;;;;;;;5077586;28;20470;-66
2023/09/18 00:33:20;;;;;;;17.02;9.88;;;;;;;;;;5094813;28;20066;-65
2023/09/18 00:35:47;;;;;;;16.83;10.02;;;;;;;;;;5095638;28;20071;-65
2023/09/18 00:38:12;;;;;;;15.32;9.00;;;;;;;;;;5060070;28;20048;-65
2023/09/18 00:40:38;;;;;;;14.40;9.20;;;;;;;;;;5077422;28;20123;-65
2023/09/18 00:43:04;;;;;;;16.08;8.95;;;;;;;;;;5094726;28;20043;-66
2023/09/18 00:45:29;;;;;;;16.63;9.07;;;;;;;;;;5077930;28;20050;-65
2023/09/18 00:47:55;;;;;;;19.15;8.25;;;;;;;;;;5095399;28;20127;-66
2023/09/18 00:50:21;;;;;;;17.40;8.55;;;;;;;;;;5094556;28;20043;-65
2023/09/18 00:52:49;;;;;;;13.70;8.23;;;;;;;;;;5077990;28;20028;-66
2023/09/18 00:55:15;;;;;;;15.63;8.25;;;;;;;;;;5095825;28;20104;-65
2023/09/18 00:57:42;;;;;;;15.80;8.27;;;;;;;;;;5094301;28;20119;-65
2023/09/18 01:00:07;;;;;;;11.48;7.80;;;;;;;;;;5094651;28;20143;-66
2023/09/18 01:02:34;;;;;;;13.13;8.18;;;;;;;;;;5094447;28;20043;-65
2023/09/18 01:05:01;;;;;;;13.30;8.07;;;;;;;;;;5094546;28;20040;-65
2023/09/18 01:07:28;;;;;;;12.73;8.02;;;;;;;;;;5077638;28;20156;-65
2023/09/18 01:09:54;;;;;;;14.68;7.22;;;;;;;;;;5095240;28;20036;-65
2023/09/18 01:12:25;;;;;;;12.10;7.65;;;;;;;;;;5094157;28;20491;-65
2023/09/18 02:49:38;;;;;;;15.38;9.35;;;;;;;15.15;100.00;99865.28;5130088;27;20853;-68
2023/09/18 02:52:04;;;;;;;9.98;7.40;;;;;;;15.20;100.00;99867.41;5041793;28;20048;-69
2023/09/18 02:54:31;;;;;;;12.00;7.47;;;;;;;15.37;100.00;99866.22;5041522;28;20039;-68
2023/09/18 02:56:57;;;;;;;13.75;8.65;;;;;;;15.32;99.94;99859.75;5074759;28;20039;-68
2023/09/18 02:59:24;;;;;;;15.52;7.90;;;;;;;15.27;99.04;99862.16;5042136;28;20044;-68
2023/09/18 03:01:50;;;;;;;16.75;7.40;;;;;;;15.49;97.92;99858.59;5058514;28;20036;-68
2023/09/18 03:04:16;;;;;;;12.10;7.07;;;;;;;15.56;97.01;99862.22;5058141;28;20044;-69
2023/09/18 03:06:42;;;;;;;10.77;6.85;;;;;;;15.63;96.56;99858.63;5041688;28;20134;-69
2023/09/18 03:09:09;;;;;;;9.82;6.20;;;;;;;16.01;94.13;99862.81;5041596;28;20048;-69
2023/09/18 03:11:36;;;;;;;10.45;6.70;;;;;;;16.32;94.12;99855.38;5039910;28;20050;-68
2023/09/18 03:14:03;;;;;;;8.88;6.60;;;;;;;16.39;91.39;99855.44;5033291;28;20048;-69
2023/09/18 03:16:33;;;;;;;11.55;6.72;;;;;;;16.56;90.30;99865.75;5038093;28;20071;-76
2023/09/18 03:18:59;;;;;;;15.55;7.10;;;;;;;16.10;90.01;99859.03;5021737;28;20055;-70
2023/09/18 03:21:25;;;;;;;16.38;7.15;;;;;;;15.68;92.51;99853.53;5054323;28;20032;-71
2023/09/18 03:23:52;;;;;;;15.38;7.25;;;;;;;15.55;94.19;99841.78;5054385;28;20058;-68
2023/09/18 03:26:18;;;;;;;10.73;6.93;;;;;;;15.54;94.90;99849.03;5053630;28;20130;-68
2023/09/18 03:28:44;;;;;;;10.07;6.95;;;;;;;15.56;95.08;99843.47;5021153;28;20135;-68
2023/09/18 03:31:10;;;;;;;11.20;7.05;;;;;;;15.55;95.15;99841.78;5021112;28;20044;-67
2023/09/18 03:33:36;;;;;;;12.10;6.72;;;;;;;15.73;94.91;99843.09;5053840;28;20475;-68
2023/09/18 03:36:04;;;;;;;11.13;6.90;;;;;;;15.75;94.16;99843.75;5053914;28;20044;-68
2023/09/18 03:38:35;;;;;;;11.75;6.10;;;;;;;15.46;95.03;99842.91;5038410;28;20193;-69
2023/09/18 03:41:04;;;;;;;14.25;6.95;;;;;;;15.71;95.52;99846.97;5020658;28;20079;-69
2023/09/18 03:43:29;;;;;;;10.30;6.68;;;;;;;15.65;95.03;99856.59;5017375;28;20048;-68
2023/09/18 03:46:03;;;;;;;10.70;7.35;;;;;;;15.85;95.17;99854.19;5020264;28;20475;-69
2023/09/18 03:48:36;;;;;;;17.35;8.13;;;;;;;15.78;94.56;99850.56;5015990;28;20056;-69
2023/09/18 03:51:02;;;;;;;14.63;7.60;;;;;;;15.98;94.13;99863.19;5005228;28;20052;-67
2023/09/18 03:53:28;;;;;;;15.63;8.10;;;;;;;15.99;92.91;99862.19;4987990;28;20056;-70
2023/09/18 03:55:55;;;;;;;12.43;7.80;;;;;;;16.08;92.66;99860.25;5020850;28;20047;-69
2023/09/18 03:58:21;;;;;;;10.32;7.00;;;;;;;16.20;91.95;99858.72;5020299;28;20071;-68
2023/09/18 04:00:49;;;;;;;13.70;7.63;;;;;;;16.30;91.55;99856.56;5003574;28;20830;-70
2023/09/18 04:03:15;;;;;;;16.77;7.10;;;;;;;16.43;90.97;99865.59;5003633;28;20107;-68
2023/09/18 04:05:41;;;;;;;13.45;7.07;;;;;;;16.42;90.50;99860.44;5003665;28;20055;-68
2023/09/18 04:08:07;;;;;;;12.63;6.68;;;;;;;16.52;90.15;99867.19;5003945;28;20045;-69
2023/09/18 04:10:33;;;;;;;11.32;7.22;;;;;;;16.39;90.11;99861.63;5003970;28;20044;-68
2023/09/18 04:13:00;;;;;;;12.93;7.32;;;;;;;16.49;90.29;99869.41;5005261;28;20107;-71
2023/09/18 04:15:30;;;;;;;15.02;7.80;;;;;;;16.21;90.75;99863.91;4972224;28;20075;-74
2023/09/18 04:17:56;;;;;;;17.15;7.10;;;;;;;16.44;90.76;99866.44;4988105;28;20174;-68
2023/09/18 04:20:25;;;;;;;18.75;7.78;;;;;;;16.55;89.93;99863.28;5003780;28;20048;-68
2023/09/18 04:23:20;;;;;;;12.80;7.13;;;;;;;16.79;89.50;99855.69;5004054;28;20053;-69
2023/09/18 04:25:47;;;;;;;12.98;6.60;;;;;;;16.73;89.34;99851.06;5020126;28;20098;-69
2023/09/18 04:28:16;;;;;;;12.15;7.13;;;;;;;16.82;89.04;99851.78;5003506;28;20610;-69
2023/09/18 04:30:43;;;;;;;13.75;7.53;;;;;;;16.63;89.19;99852.44;5020130;28;20037;-69
2023/09/18 04:33:10;;;;;;;13.80;7.35;;;;;;;16.75;89.52;99853.56;5003552;28;20392;-69
2023/09/18 04:35:39;;;;;;;16.38;7.22;;;;;;;16.77;89.38;99848.84;4987406;28;20056;-69
2023/09/18 04:38:06;;;;;;;15.73;8.20;;;;;;;17.22;88.48;99856.44;5035942;28;20072;-69
2023/09/18 04:40:33;;;;;;;13.23;7.68;;;;;;;16.85;88.73;99851.41;5001496;28;20094;-70
2023/09/18 04:43:00;;;;;;;13.63;7.20;;;;;;;16.83;88.63;99856.97;5022071;28;20051;-68
2023/09/18 04:45:29;;;;;;;15.43;7.78;;;;;;;16.70;89.45;99854.16;5023242;28;20135;-70
2023/09/18 04:47:56;;;;;;;12.50;6.70;;;;;;;16.81;89.63;99858.16;5023583;28;20098;-67
2023/09/18 04:50:22;;;;;;;9.95;7.15;;;;;;;16.92;89.31;99846.06;5038782;28;20098;-70
2023/09/18 04:52:50;;;;;;;13.00;6.70;;;;;;;17.04;88.71;99847.22;5039409;28;20045;-68
2023/09/18 04:55:17;;;;;;;9.85;6.45;;;;;;;17.13;88.38;99840.69;5023082;28;20040;-67
2023/09/18 04:57:44;;;;;;;14.50;6.93;;;;;;;17.16;88.19;99848.38;5022553;28;20044;-69
2023/09/18 05:00:13;;;;;;;12.85;6.82;;;;;;;17.21;87.73;99846.75;5022792;28;20040;-69
2023/09/18 05:02:40;;;;;;;12.23;6.50;;;;;;;17.33;87.39;99855.09;5022559;28;20063;-69
2023/09/18 05:05:10;;;;;;;13.50;6.93;;;;;;;17.37;87.07;99845.63;5018172;28;20059;-69
2023/09/18 05:07:39;;;;;;;13.38;6.95;;;;;;;17.50;87.17;99845.72;5002086;28;20045;-70
2023/09/18 05:10:08;;;;;;;13.30;7.20;;;;;;;17.35;87.53;99851.19;5002149;28;20114;-69
2023/09/18 05:12:34;;;;;;;17.75;6.95;;;;;;;17.33;87.13;99847.03;5001668;28;20041;-70
2023/09/18 05:15:00;;;;;;;13.07;7.32;;;;;;;17.36;86.91;99847.47;5002069;28;20148;-69
2023/09/18 05:17:51;;;;;;;10.57;6.78;;;;;;;17.44;87.49;99844.66;5050888;28;20073;-69
2023/09/18 05:20:18;;;;;;;16.40;6.65;;;;;;;17.15;87.95;99841.31;5034168;28;20061;-68
2023/09/18 05:22:44;;;;;;;9.88;6.18;;;;;;;17.12;88.25;99844.38;5001543;28;20097;-69
2023/09/18 05:25:14;;;;;;;13.25;6.88;;;;;;;17.27;88.74;99842.44;4985435;28;20080;-68
2023/09/18 05:27:44;;;;;;;13.98;7.18;;;;;;;17.22;88.76;99845.69;5017927;28;20159;-71
2023/09/18 05:30:13;;;;;;;15.43;7.38;;;;;;;17.40;88.96;99848.75;4962697;28;20045;-68
2023/09/18 05:32:39;;;;;;;14.75;7.90;;;;;;;17.30;89.06;99848.25;4962278;28;20050;-68
2023/09/18 05:35:09;;;;;;;16.48;7.68;;;;;;;17.37;90.28;99834.88;4982386;28;20060;-69
2023/09/18 05:37:37;;;;;;;18.48;7.50;;;;;;;17.57;89.81;99839.38;5001224;28;20049;-70
2023/09/18 05:40:11;;;;;;;12.80;6.78;;;;;;;17.81;89.14;99840.72;5001640;28;20443;-72
2023/09/18 05:42:38;;;;;;;13.38;7.07;;;;;;;17.90;87.46;99855.66;5001551;28;20095;-68
2023/09/18 05:45:04;;;;;;;19.92;7.47;;;;;;;18.17;87.16;99852.06;5001187;28;20040;-73
2023/09/18 05:47:35;;;;;;;16.23;7.70;;;;;;;18.37;86.34;99843.06;4984761;28;20049;-69
2023/09/18 05:50:03;;;;;;;19.30;9.55;;;;;;;18.68;85.66;99837.13;4985598;28;20083;-68
2023/09/18 05:52:30;;;;;;;19.73;11.75;;;;;;;18.83;84.11;99853.91;5018000;28;20135;-69
2023/09/18 05:54:56;;;;;;;19.60;12.18;;;;;;;19.04;83.61;99858.25;5016436;28;20439;-69
2023/09/18 05:57:22;;;;;;;22.33;12.23;;;;;;;19.22;82.54;99859.28;4982819;28;20179;-71
2023/09/18 05:59:50;;;;;;;16.30;10.95;;;;;;;19.33;81.79;99865.94;4980262;28;20064;-70
2023/09/18 06:02:16;;;;;;;20.50;10.13;;;;;;;19.57;80.88;99865.31;4980184;28;20168;-69
2023/09/18 06:04:43;;;;;;;17.95;8.70;;;;;;;19.76;79.92;99861.72;4996295;28;20487;-70
2023/09/18 06:07:13;;;;;;;10.10;6.70;;;;;;;19.94;78.85;99856.50;5011360;28;20048;-69
2023/09/18 06:09:40;;;;;;;11.50;6.03;;;;;;;20.11;77.83;99861.19;5020270;28;20059;-69
2023/09/18 06:12:07;;;;;;;9.57;5.57;;;;;;;20.21;77.08;99850.00;4996339;28;20056;-74
2023/09/18 06:14:37;;;;;;;11.40;5.60;;;;;;;20.28;76.31;99855.34;4963401;28;20053;-70
2023/09/18 06:17:06;;;;;;;9.82;5.40;;;;;;;20.65;75.12;99851.81;5013444;28;20210;-69
2023/09/18 06:19:33;;;;;;;13.75;5.40;;;;;;;20.62;73.88;99847.66;5012328;28;20149;-71
2023/09/18 06:21:59;;;;;;;9.80;5.28;;;;;;;20.86;73.36;99851.47;4997088;28;20123;-69
2023/09/18 06:24:26;;;;;;;8.75;5.50;;;;;;;21.14;72.29;99846.50;4981161;28;20525;-69
2023/09/18 06:26:52;;;;;;;7.15;5.03;;;;;;;21.24;71.70;99849.53;4981163;28;20065;-69
2023/09/18 06:29:18;;;;;;;12.30;5.45;;;;;;;21.38;70.96;99853.75;4997325;28;20053;-69
2023/09/18 06:31:45;;;;;;;11.65;5.50;;;;;;;21.67;70.05;99853.88;4965161;28;20045;-70
2023/09/18 06:34:11;;;;;;;10.85;5.25;;;;;;;21.79;68.43;99859.41;4981132;28;20049;-69
2023/09/18 06:36:37;;;;;;;10.30;5.15;;;;;;;22.07;67.52;99861.56;4997349;28;20057;-73
2023/09/18 06:39:03;;;;;;;8.35;4.60;;;;;;;22.29;67.11;99847.34;4981542;28;20076;-69
2023/09/18 06:41:30;;;;;;;9.85;5.22;;;;;;;22.50;66.34;99846.84;5013532;28;20052;-69
2023/09/18 06:43:57;;;;;;;10.10;5.57;;;;;;;22.63;64.95;99845.88;4980997;28;20140;-70
2023/09/18 06:46:24;;;;;;;14.25;5.47;;;;;;;22.73;64.21;99844.25;4981208;28;20050;-69
2023/09/18 06:48:51;;;;;;;11.27;5.15;;;;;;;23.00;63.13;99850.09;5005177;28;20067;-69
2023/09/18 06:51:17;;;;;;;6.70;4.90;;;;;;;23.33;62.34;99838.69;5037128;28;20055;-69
2023/09/18 06:53:46;;;;;;;8.52;5.10;;;;;;;23.71;60.86;99844.50;5021192;28;20052;-70
2023/09/18 06:56:12;;;;;;;18.45;5.38;;;;;;;24.00;59.40;99851.66;5037653;28;20044;-70
2023/09/18 06:58:38;;;;;;;7.80;5.45;;;;;;;24.41;57.95;99841.38;5037702;28;20062;-73
2023/09/18 07:01:07;;;;;;;10.10;5.25;;;;;;;24.87;56.49;99848.50;5021240;28;20127;-70
2023/09/18 07:03:35;;;;;;;18.33;5.35;;;;;;;25.24;54.45;99846.13;5038217;28;20052;-70
2023/09/18 07:06:01;;;;;;;11.63;4.68;;;;;;;25.63;52.69;99856.81;5054099;28;20349;-70
2023/09/18 07:08:27;;;;;;;9.07;5.07;;;;;;;26.06;51.83;99842.50;5021090;28;20040;-70
2023/09/18 07:10:53;;;;;;;15.27;5.88;;;;;;;26.47;49.76;99844.59;5020981;28;20471;-70
2023/09/18 07:13:19;;;;;;;11.65;6.07;;;;;;;26.93;48.35;99859.53;5037629;28;20051;-70
2023/09/18 07:15:45;;;;;;;9.45;5.93;;;;;;;27.22;46.51;99864.44;5021191;28;20044;-70
2023/09/18 07:18:14;;;;;;;14.25;6.43;;;;;;;27.58;45.13;99852.75;5037351;28;20067;-71
2023/09/18 07:20:41;;;;;;;13.10;5.13;;;;;;;27.68;43.91;99844.59;5021391;28;20143;-71
2023/09/18 07:23:07;;;;;;;6.85;4.88;;;;;;;27.87;43.45;99854.03;5021393;28;20063;-70
2023/09/18 07:25:33;;;;;;;8.18;5.03;;;;;;;27.89;42.98;99859.22;5056825;28;20515;-70
2023/09/18 07:28:00;;;;;;;9.23;4.93;;;;;;;27.77;42.40;99844.91;5057389;28;20113;-72
2023/09/18 07:30:27;;;;;;;8.15;4.57;;;;;;;27.42;42.99;99856.44;5040766;28;20044;-70
2023/09/18 07:32:58;;;;;;;8.68;5.15;;;;;;;27.98;42.89;99868.56;5024697;28;20081;-72
2023/09/18 07:35:25;;;;;;;8.73;4.32;;;;;;;29.32;40.07;99866.50;5057763;28;20044;-70
2023/09/18 07:37:51;;;;;;;10.25;5.07;;;;;;;30.71;36.89;99867.16;5024564;28;20147;-70
2023/09/18 07:40:18;;;;;;;9.55;4.97;;;;;;;31.57;34.75;99855.56;5024310;28;20085;-70
2023/09/18 07:42:44;;;;;;;13.25;4.70;;;;;;;32.56;32.45;99855.53;5024788;28;20047;-69
2023/09/18 07:45:11;;;;;;;10.65;4.50;;;;;;;33.02;31.21;99861.19;5024026;28;20495;-74
2023/09/18 07:47:37;;;;;;;11.18;4.72;;;;;;;33.41;30.31;99858.91;5024174;28;20047;-70
2023/09/18 07:50:04;;;;;;;12.50;5.18;;;;;;;34.14;29.05;99865.25;5024206;28;20133;-70
2023/09/18 07:52:32;;;;;;;8.90;5.03;;;;;;;34.91;27.19;99864.16;5025015;28;20040;-70
2023/09/18 07:54:59;;;;;;;9.50;4.57;;;;;;;34.31;27.36;99865.44;5024423;28;20637;-70
2023/09/18 07:57:28;;;;;;;8.68;4.35;;;;;;;33.25;28.45;99863.84;5040315;28;20044;-70
2023/09/18 07:59:54;;;;;;;9.93;4.22;;;;;;;32.22;29.86;99858.44;5057311;28;20079;-69
2023/09/18 08:02:21;;;;;;;8.45;4.53;;;;;;;31.16;31.28;99852.34;5023763;28;20071;-72
2023/09/18 08:04:47;;;;;;;7.28;4.82;;;;;;;30.18;32.89;99853.44;5024211;28;20102;-70
2023/09/18 08:07:13;;;;;;;7.15;4.78;;;;;;;29.52;34.23;99847.31;5023844;28;20139;-70
2023/09/18 08:09:40;;;;;;;9.95;5.20;;;;;;;30.55;33.50;99851.09;5023746;28;20059;-70
2023/09/18 08:12:07;;;;;;;14.13;4.93;;;;;;;32.55;30.34;99854.69;5023744;28;20076;-71
2023/09/18 08:14:36;;;;;;;9.25;4.60;;;;;;;33.55;28.89;99857.03;5073208;28;20445;-70
2023/09/18 08:17:07;;;;;;;7.13;4.40;;;;;;;34.94;26.99;99855.25;5040888;28;20048;-73
2023/09/18 08:19:33;;;;;;;9.18;4.30;;;;;;;37.07;24.17;99858.13;5040255;28;20502;-70
2023/09/18 08:22:03;;;;;;;9.07;4.13;;;;;;;39.55;21.10;99860.44;5040014;28;20045;-70
2023/09/18 08:24:30;;;;;;;6.90;3.63;;;;;;;41.42;18.62;99854.91;5057294;28;20052;-70
2023/09/18 08:26:56;;;;;;;7.43;3.95;;;;;;;43.00;16.97;99858.03;5023437;28;20127;-71
2023/09/18 08:29:22;;;;;;;7.00;4.05;;;;;;;44.24;15.44;99857.19;5023316;28;20139;-71
2023/09/18 08:31:49;;;;;;;10.30;3.92;;;;;;;45.36;13.95;99846.75;5039780;28;20041;-70
2023/09/18 08:34:15;;;;;;;6.72;3.85;;;;;;;46.17;12.93;99842.75;5039916;28;20052;-71
2023/09/18 08:36:41;;;;;;;8.43;3.80;;;;;;;46.60;12.34;99834.59;5023371;28;20078;-70
2023/09/18 08:39:07;;;;;;;10.05;3.90;;;;;;;46.89;12.05;99834.38;5039558;28;20055;-71
2023/09/18 08:41:38;;;;;;;9.23;3.42;;;;;;;47.62;11.18;99835.84;5023166;28;20044;-70
2023/09/18 08:44:07;;;;;;;10.75;3.65;;;;;;;47.68;11.44;99834.22;5023305;28;20051;-71
2023/09/18 08:46:34;;;;;;;12.05;4.38;;;;;;;45.51;12.74;99822.47;5055972;28;20044;-71
2023/09/18 08:49:00;;;;;;;12.93;4.35;;;;;;;43.44;14.27;99822.19;5039567;28;20048;-70
2023/09/18 08:51:27;;;;;;;9.15;4.28;;;;;;;40.79;16.00;99816.03;5022941;28;20040;-70
2023/09/18 08:53:54;;;;;;;11.60;4.78;;;;;;;38.22;18.56;99814.41;5072603;28;20048;-70
2023/09/18 08:56:21;;;;;;;11.43;5.03;;;;;;;36.28;20.95;99809.63;5039384;28;20101;-71
2023/09/18 08:58:48;;;;;;;11.85;5.15;;;;;;;34.97;22.66;99812.38;5039380;28;20045;-70
2023/09/18 09:01:14;;;;;;;16.23;5.38;;;;;;;35.43;22.46;99808.16;5039400;28;20043;-69
2023/09/18 09:03:50;;;;;;;9.63;4.68;;;;;;;36.50;21.29;99813.13;5039351;28;20040;-70
2023/09/18 09:06:16;;;;;;;10.20;4.50;;;;;;;36.49;21.05;99810.69;5023790;28;20040;-70
2023/09/18 09:08:43;;;;;;;11.55;4.90;;;;;;;35.81;21.72;99802.16;5022781;28;20047;-70
2023/09/18 09:11:10;;;;;;;12.95;4.97;;;;;;;34.87;22.96;99801.59;5055683;28;20052;-70
2023/09/18 09:13:36;;;;;;;7.13;4.68;;;;;;;33.99;23.90;99810.44;5022571;28;20131;-70
2023/09/18 09:16:03;;;;;;;9.90;4.60;;;;;;;33.25;25.31;99806.00;5022436;28;20170;-70
2023/09/18 09:18:33;;;;;;;13.00;5.05;;;;;;;32.35;26.79;99805.47;5022640;28;20147;-69
2023/09/18 09:21:03;;;;;;;14.43;4.50;;;;;;;31.44;28.07;99802.16;5039392;28;20040;-70
2023/09/18 09:23:44;;;;;;;7.55;4.95;;;;;;;31.00;28.76;99809.66;5038801;28;20067;-69
2023/09/18 09:26:15;;;;;;;9.52;4.75;;;;;;;30.61;29.96;99809.66;5038896;28;20086;-70
2023/09/18 09:28:43;;;;;;;12.43;4.90;;;;;;;30.36;30.21;99806.25;5022422;28;20040;-69
2023/09/18 09:31:13;;;;;;;10.68;4.85;;;;;;;30.24;30.50;99816.72;5022607;28;20043;-70
2023/09/18 09:33:50;;;;;;;7.85;4.68;;;;;;;30.06;31.21;99793.47;5055321;28;20044;-69
2023/09/18 09:36:16;;;;;;;9.35;4.80;;;;;;;29.77;31.77;99814.41;5022516;28;20491;-77
2023/09/18 09:38:44;;;;;;;12.57;5.25;;;;;;;29.61;32.12;99815.53;5022021;28;20098;-70
2023/09/18 09:41:17;;;;;;;12.05;6.05;;;;;;;29.52;32.24;99815.25;5023038;28;20505;-69
2023/09/18 09:43:44;;;;;;;8.25;5.75;;;;;;;29.12;32.80;99815.31;5039016;28;20040;-69
2023/09/18 09:46:18;;;;;;;10.45;5.40;;;;;;;28.97;33.23;99820.75;5017299;28;20103;-69
2023/09/18 09:49:04;;;;;;;11.82;5.63;;;;;;;28.97;33.67;99822.69;5033539;28;20052;-69
2023/09/18 09:51:31;;;;;;;13.38;5.90;;;;;;;29.11;33.60;99819.16;5001200;28;20107;-69
2023/09/18 09:53:59;;;;;;;13.38;5.60;;;;;;;29.26;33.36;99826.53;5017584;28;20107;-71
2023/09/18 09:57:02;;;;;;;18.10;6.32;;;;;;;29.44;33.16;99829.53;5001120;28;20032;-69
2023/09/18 09:59:29;;;;;;;7.63;5.20;;;;;;;29.28;33.12;99835.28;4924158;28;20477;-72
2023/09/18 10:01:56;;;;;;;12.18;5.25;;;;;;;29.14;33.67;99832.28;4923878;28;20054;-69
2023/09/18 10:04:25;;;;;;;11.98;5.18;;;;;;;28.93;33.90;99837.97;4940062;28;20508;-70
2023/09/18 10:06:58;;;;;;;11.68;5.32;;;;;;;28.87;34.37;99834.44;4938621;28;20071;-75
2023/09/18 10:09:29;;;;;;;16.45;6.40;;;;;;;28.48;35.40;99829.69;5017342;28;20122;-70
2023/09/18 10:11:57;;;;;;;12.00;6.35;;;;;;;28.37;35.57;99834.28;4985169;28;20062;-70
2023/09/18 10:14:34;;;;;;;18.92;6.43;;;;;;;28.47;35.59;99828.91;5000595;28;20395;-70
2023/09/18 10:17:17;;;;;;;10.60;5.55;;;;;;;28.57;35.52;99825.38;5001063;28;20144;-70
2023/09/18 10:20:16;;;;;;;14.13;5.63;;;;;;;29.07;34.82;99830.91;5000842;28;20562;-70
2023/09/18 10:22:46;;;;;;;12.55;5.45;;;;;;;30.14;33.44;99834.00;5022235;28;20491;-70
2023/09/18 10:25:19;;;;;;;9.80;4.68;;;;;;;30.70;31.88;99827.16;5038247;28;20040;-70
2023/09/18 10:27:58;;;;;;;11.48;5.60;;;;;;;30.84;31.44;99819.94;5022164;28;20044;-69
2023/09/18 10:30:26;;;;;;;16.17;5.55;;;;;;;30.77;31.50;99822.19;5040828;28;20117;-70
2023/09/18 10:32:53;;;;;;;14.48;5.40;;;;;;;30.48;31.89;99828.63;5054508;28;20044;-74
2023/09/18 10:35:20;;;;;;;10.73;6.07;;;;;;;29.97;32.78;99832.72;5021524;28;20048;-70
2023/09/18 10:37:48;;;;;;;16.33;5.43;;;;;;;29.53;33.54;99832.50;5021687;28;20142;-70
2023/09/18 10:40:15;;;;;;;10.88;5.60;;;;;;;29.15;34.43;99824.91;5021344;28;20124;-69
2023/09/18 10:42:42;;;;;;;12.00;5.40;;;;;;;28.85;35.17;99825.69;5021425;28;20048;-70
2023/09/18 10:45:10;;;;;;;10.85;5.50;;;;;;;28.66;35.53;99824.53;5054509;28;20045;-70
2023/09/18 10:47:41;;;;;;;11.77;5.63;;;;;;;28.46;36.50;99821.75;5021301;28;20055;-69
2023/09/18 10:50:09;;;;;;;11.27;5.28;;;;;;;28.33;37.28;99822.25;5021035;28;20040;-70
2023/09/18 10:52:36;;;;;;;13.35;5.07;;;;;;;28.11;37.84;99824.38;5037778;28;20040;-74
2023/09/18 10:55:05;;;;;;;16.00;8.02;;;;;;;27.76;38.29;99816.81;5037668;28;20045;-69
2023/09/18 10:57:38;;;;;;;14.77;6.78;;;;;;;27.58;39.65;99810.97;5021279;28;20460;-71
2023/09/18 11:00:13;;;;;;;11.70;5.75;;;;;;;27.29;40.70;99815.16;5019239;28;20143;-70
2023/09/18 11:02:41;;;;;;;16.33;5.63;;;;;;;27.11;41.74;99810.09;4989239;28;20428;-70
2023/09/18 11:05:09;;;;;;;12.80;5.63;;;;;;;27.06;42.26;99807.31;4965162;28;20049;-69
2023/09/18 11:07:35;;;;;;;10.98;5.53;;;;;;;26.94;42.69;99807.47;4965304;28;20508;-69
2023/09/18 11:10:25;;;;;;;11.98;5.85;;;;;;;26.97;42.80;99804.22;4965477;28;20058;-69
2023/09/18 11:13:07;;;;;;;11.95;5.72;;;;;;;26.97;43.48;99808.88;4982023;28;20061;-78
2023/09/18 11:15:33;;;;;;;12.77;6.47;;;;;;;27.30;42.79;99809.44;4997578;28;20041;-69
2023/09/18 11:18:06;;;;;;;9.63;5.95;;;;;;;27.63;42.00;99811.81;4981380;28;20049;-70
2023/09/18 11:20:32;;;;;;;15.90;6.50;;;;;;;27.96;41.49;99810.66;4982048;28;20495;-69
2023/09/18 11:23:16;;;;;;;13.80;5.15;;;;;;;29.38;38.22;99825.13;4939384;29;20063;-70
2023/09/18 11:25:48;;;;;;;12.25;5.38;;;;;;;29.89;37.15;99827.81;4923722;29;20503;-73
2023/09/18 11:28:19;;;;;;;11.38;5.25;;;;;;;30.20;36.08;99812.91;4901574;29;20063;-70
2023/09/18 11:30:58;;;;;;;8.00;5.30;;;;;;;30.38;35.53;99817.75;4866947;29;20444;-69
2023/09/18 11:33:46;;;;;;;7.10;5.20;;;;;;;30.49;34.94;99817.38;4882472;29;20052;-70
2023/09/18 11:36:45;;;;;;;6.22;4.28;;;;;;;30.53;34.56;99813.00;4882578;29;20573;-69
2023/09/18 11:39:12;;;;;;;10.20;4.75;;;;;;;30.72;34.18;99821.38;4887575;29;20059;-69
2023/09/18 11:41:39;;;;;;;17.65;5.63;;;;;;;30.55;34.01;99819.00;4853649;29;20378;-69
2023/09/18 11:44:18;;;;;;;13.50;5.78;;;;;;;30.43;34.31;99824.00;4901193;29;20073;-69
2023/09/18 11:46:51;;;;;;;11.70;5.72;;;;;;;30.33;34.48;99821.34;4916394;29;20051;-70
2023/09/18 11:49:23;;;;;;;10.10;5.65;;;;;;;30.28;34.45;99824.09;4900842;29;20423;-69
2023/09/18 11:51:50;;;;;;;12.70;5.68;;;;;;;30.09;34.29;99827.72;4916783;29;20056;-69
2023/09/18 11:54:21;;;;;;;9.85;5.28;;;;;;;29.92;34.56;99827.25;4874964;29;20151;-69
2023/09/18 11:56:49;;;;;;;11.25;4.80;;;;;;;29.64;35.12;99823.22;4897658;29;20097;-69
2023/09/18 11:59:17;;;;;;;7.38;4.70;;;;;;;29.34;35.51;99823.22;4866434;29;20136;-69
2023/09/18 12:01:46;;;;;;;12.07;4.47;;;;;;;29.15;36.14;99819.44;4882211;29;20060;-69
2023/09/18 12:04:13;;;;;;;9.55;4.63;;;;;;;28.92;36.23;99825.41;4896066;29;20056;-69
2023/09/18 12:06:41;;;;;;;5.90;4.43;;;;;;;28.76;36.76;99819.09;4900487;29;20508;-68
2023/09/18 12:09:09;;;;;;;11.35;4.90;;;;;;;28.37;37.65;99823.34;4900709;29;20063;-69
2023/09/18 12:11:48;;;;;;;9.15;4.97;;;;;;;28.07;38.23;99822.44;4867858;29;20059;-69
2023/09/18 12:14:19;;;;;;;10.07;5.25;;;;;;;28.13;38.39;99819.47;4884717;29;20072;-69
2023/09/18 12:16:44;;;;;;;7.05;4.38;;;;;;;28.03;38.38;99816.72;4886466;29;20060;-69
2023/09/18 12:19:17;;;;;;;10.10;4.80;;;;;;;28.19;38.58;99823.84;4887725;29;20142;-69
2023/09/18 12:21:47;;;;;;;8.50;4.85;;;;;;;28.18;38.68;99822.22;4903638;29;20051;-69
2023/09/18 12:24:15;;;;;;;11.15;5.30;;;;;;;28.11;38.94;99824.38;4907381;28;20476;-70
2023/09/18 12:26:41;;;;;;;9.05;4.53;;;;;;;28.26;38.49;99823.63;4980976;28;20213;-70
2023/09/18 12:29:08;;;;;;;8.07;4.60;;;;;;;28.58;38.16;99827.00;5019253;28;20450;-71
2023/09/18 12:31:37;;;;;;;14.00;5.10;;;;;;;28.79;37.41;99823.19;5003463;28;20131;-69
2023/09/18 12:34:07;;;;;;;8.25;4.43;;;;;;;28.95;37.26;99827.59;5002612;28;20464;-70
2023/09/18 12:36:33;;;;;;;10.27;4.50;;;;;;;29.09;36.65;99832.28;5003166;28;20091;-71
2023/09/18 12:39:02;;;;;;;9.07;4.05;;;;;;;29.29;36.49;99832.25;5002278;28;20048;-71
2023/09/18 12:41:30;;;;;;;10.00;4.80;;;;;;;29.30;35.93;99831.19;5002346;28;20175;-70
2023/09/18 12:43:56;;;;;;;16.88;9.15;;;;;;;29.29;35.86;99837.72;5002750;28;20279;-68
2023/09/18 12:46:22;;;;;;;12.82;4.82;;;;;;;29.33;35.97;99833.38;4989785;28;20461;-72
2023/09/18 12:48:49;;;;;;;12.35;4.68;;;;;;;29.17;35.96;99826.25;4982697;28;20053;-71
2023/09/18 12:51:22;;;;;;;10.10;5.10;;;;;;;29.13;36.61;99833.38;4972126;28;20049;-71
2023/09/18 12:54:00;;;;;;;11.05;5.43;;;;;;;29.04;37.01;99831.44;5005711;28;20485;-69
2023/09/18 12:56:29;;;;;;;13.75;5.32;;;;;;;28.93;37.49;99830.63;4987382;28;20073;-70
2023/09/18 12:58:58;;;;;;;13.07;5.32;;;;;;;28.78;37.77;99825.13;4976673;28;20046;-71
2023/09/18 13:01:26;;;;;;;;;;;;;;;28.70;38.00;99825.66;5002545;28;20088;-71
2023/09/18 13:03:59;;;;;;;11.30;5.47;;;;;;;28.47;38.38;99828.06;5002942;28;19987;-73
2023/09/18 13:06:28;;;;;;;10.38;5.82;;;;;;;27.98;39.28;99822.94;4954078;28;20050;-72
2023/09/18 13:08:56;;;;;;;11.65;5.75;;;;;;;27.54;40.47;99821.59;4953406;28;20102;-69
2023/09/18 13:11:25;;;;;;;14.43;5.65;;;;;;;27.18;41.27;99819.69;4921177;28;20079;-69
2023/09/18 13:14:00;;;;;;;14.10;5.70;;;;;;;26.87;42.50;99823.25;4927691;29;20117;-68
2023/09/18 13:16:27;;;;;;;14.60;6.22;;;;;;;26.52;43.43;99823.69;4829091;29;20060;-69
2023/09/18 13:18:53;;;;;;;13.50;6.65;;;;;;;26.26;44.21;99832.66;4867319;29;20056;-68
2023/09/18 13:21:20;;;;;;;8.38;5.72;;;;;;;26.03;45.19;99824.75;4836895;29;20127;-69
2023/09/18 13:23:47;;;;;;;13.80;5.60;;;;;;;25.92;45.60;99825.69;4851564;29;20072;-68
2023/09/18 13:26:16;;;;;;;18.52;5.82;;;;;;;25.94;46.04;99820.78;4836568;29;20057;-69